createdAt,value
2019-04-28T00:01:23.071Z,87.60
2019-04-28T00:03:51.612Z,87.30
2019-04-28T00:06:21.122Z,87.80
2019-04-28T00:08:48.988Z,87.10
2019-04-28T00:11:16.809Z,85.50
2019-04-28T00:13:47.383Z,87.60
2019-04-28T00:16:15.148Z,87.60
2019-04-28T00:18:44.297Z,86.40
2019-04-28T00:21:28.580Z,85.40
2019-04-28T00:24:03.272Z,85.40
2019-04-28T00:26:42.522Z,87.00
2019-04-28T00:29:11.199Z,86.80
2019-04-28T00:31:41.365Z,88.50
2019-04-28T00:34:11.470Z,87.90
2019-04-28T00:36:41.210Z,87.00
2019-04-28T00:39:11.091Z,86.50
2019-04-28T00:41:39.257Z,86.10
2019-04-28T00:44:06.979Z,86.70
2019-04-28T00:46:36.260Z,86.80
2019-04-28T00:49:05.126Z,86.40
2019-04-28T00:51:33.634Z,86.30
2019-04-28T00:54:01.348Z,87.30
2019-04-28T00:56:29.108Z,85.20
2019-04-28T00:58:56.842Z,86.10
2019-04-28T01:01:32.399Z,86.80
2019-04-28T01:04:01.959Z,86.40
2019-04-28T01:06:32.010Z,87.60
2019-04-28T01:08:59.449Z,87.20
2019-04-28T01:11:27.284Z,86.10
2019-04-28T01:13:55.113Z,85.60
2019-04-28T01:16:32.956Z,86.40
2019-04-28T01:19:06.211Z,87.00
2019-04-28T01:21:52.244Z,87.30
2019-04-28T01:24:20.152Z,87.00
2019-04-28T01:26:50.837Z,85.20
2019-04-28T01:29:19.514Z,86.90
2019-04-28T01:31:56.386Z,86.60
2019-04-28T01:34:24.194Z,87.70
2019-04-28T01:36:52.167Z,87.30
2019-04-28T01:39:23.683Z,87.90
2019-04-28T01:41:51.580Z,87.90
2019-04-28T01:44:19.940Z,88.70
2019-04-28T01:46:49.505Z,88.10
2019-04-28T01:49:19.442Z,87.50
2019-04-28T01:52:00.520Z,87.40
2019-04-28T01:54:30.179Z,86.70
2019-04-28T01:56:59.234Z,87.20
2019-04-28T01:59:27.819Z,87.00
2019-04-28T02:01:55.612Z,87.60
2019-04-28T02:04:23.380Z,86.80
2019-04-28T02:06:51.153Z,87.60
2019-04-28T02:09:19.516Z,86.20
2019-04-28T02:11:49.647Z,86.10
2019-04-28T02:14:17.157Z,86.30
2019-04-28T02:16:44.907Z,86.00
2019-04-28T02:19:12.676Z,85.20
2019-04-28T02:22:04.642Z,85.90
2019-04-28T02:24:33.938Z,86.50
2019-04-28T02:27:01.683Z,85.30
2019-04-28T02:29:30.116Z,86.50
2019-04-28T02:32:01.904Z,86.70
2019-04-28T02:34:31.219Z,85.20
2019-04-28T02:37:01.023Z,85.60
2019-04-28T02:39:27.773Z,85.50
2019-04-28T02:41:55.713Z,86.60
2019-04-28T02:44:23.766Z,85.10
2019-04-28T02:46:51.702Z,85.10
2019-04-28T02:49:25.080Z,82.90
2019-04-28T02:52:20.664Z,85.10
2019-04-28T02:54:50.753Z,85.10
2019-04-28T02:57:20.618Z,85.10
2019-04-28T02:59:50.564Z,83.20
2019-04-28T03:02:22.547Z,83.10
2019-04-28T03:04:50.856Z,83.50
2019-04-28T03:07:21.786Z,82.80
2019-04-28T03:09:51.744Z,83.40
2019-04-28T03:12:21.317Z,82.90
2019-04-28T03:14:50.586Z,84.50
2019-04-28T03:17:17.660Z,83.20
2019-04-28T03:19:45.458Z,82.80
2019-04-28T03:22:13.348Z,82.90
2019-04-28T03:24:42.675Z,82.90
2019-04-28T03:27:35.964Z,82.20
2019-04-28T03:30:23.152Z,84.20
2019-04-28T03:32:59.076Z,84.80
2019-04-28T03:35:23.022Z,84.30
2019-04-28T03:37:51.330Z,84.30
2019-04-28T03:40:21.191Z,84.70
2019-04-28T03:42:51.373Z,84.40
2019-04-28T03:45:24.806Z,84.10
2019-04-28T03:47:52.562Z,84.90
2019-04-28T03:50:20.371Z,83.40
2019-04-28T03:52:50.997Z,82.50
2019-04-28T03:55:17.912Z,83.00
2019-04-28T03:57:46.131Z,84.40
2019-04-28T04:00:14.306Z,84.70
2019-04-28T04:03:06.811Z,83.50
2019-04-28T04:05:34.543Z,84.10
2019-04-28T04:08:02.295Z,82.00
2019-04-28T04:10:37.359Z,83.60
2019-04-28T04:13:25.917Z,83.70
2019-04-28T04:16:22.351Z,83.60
2019-04-28T04:18:53.785Z,81.90
2019-04-28T04:21:21.715Z,83.80
2019-04-28T04:23:51.008Z,83.90
2019-04-28T04:26:21.424Z,82.40
2019-04-28T04:28:51.476Z,81.80
2019-04-28T04:31:20.013Z,80.80
2019-04-28T04:33:50.658Z,81.90
2019-04-28T04:36:20.815Z,80.80
2019-04-28T04:38:50.947Z,79.40
2019-04-28T04:41:18.035Z,80.00
2019-04-28T04:43:45.824Z,80.80
2019-04-28T04:46:22.724Z,81.30
2019-04-28T04:48:51.110Z,80.50
2019-04-28T04:51:21.362Z,80.80
2019-04-28T04:53:51.116Z,80.10
2019-04-28T04:56:21.135Z,80.00
2019-04-28T04:58:50.283Z,80.80
2019-04-28T05:01:42.888Z,80.10
2019-04-28T05:04:23.226Z,80.10
2019-04-28T05:06:50.972Z,80.10
2019-04-28T05:09:19.629Z,79.30
2019-04-28T05:11:49.783Z,80.10
2019-04-28T05:14:19.826Z,80.10
2019-04-28T05:16:49.248Z,79.90
2019-04-28T05:19:17.443Z,80.20
2019-04-28T05:21:45.370Z,78.30
2019-04-28T05:24:32.816Z,79.10
2019-04-28T05:27:00.594Z,78.30
2019-04-28T05:29:28.378Z,77.70
2019-04-28T05:31:59.887Z,78.10
2019-04-28T05:34:25.759Z,77.20
2019-04-28T05:36:53.541Z,75.50
2019-04-28T05:39:21.344Z,75.50
2019-04-28T05:41:50.457Z,75.60
2019-04-28T05:44:20.107Z,73.10
2019-04-28T05:46:50.374Z,73.80
2019-04-28T05:49:40.386Z,73.50
2019-04-28T05:53:03.188Z,70.90
2019-04-28T05:55:56.106Z,68.20
2019-04-28T05:58:43.480Z,63.90
2019-04-28T06:01:30.556Z,60.90
2019-04-28T06:03:58.369Z,60.60
2019-04-28T06:06:30.304Z,60.20
2019-04-28T06:09:12.290Z,62.00
2019-04-28T06:11:40.856Z,62.90
2019-04-28T06:14:09.990Z,63.80
2019-04-28T06:16:37.924Z,67.10
2019-04-28T06:19:05.633Z,70.90
2019-04-28T06:21:38.480Z,70.80
2019-04-28T06:24:06.202Z,70.90
2019-04-28T06:26:33.989Z,67.90
2019-04-28T06:29:02.222Z,67.30
2019-04-28T06:32:00.401Z,67.50
2019-04-28T06:34:28.171Z,67.00
2019-04-28T06:36:55.935Z,65.70
2019-04-28T06:39:23.719Z,67.60
2019-04-28T06:41:51.515Z,66.60
2019-04-28T06:44:19.210Z,69.00
2019-04-28T06:46:47.053Z,65.00
2019-04-28T06:49:14.845Z,64.90
2019-04-28T06:51:42.632Z,65.20
2019-04-28T06:54:10.395Z,61.00
2019-04-28T06:56:38.148Z,64.00
2019-04-28T06:59:05.876Z,64.30
2019-04-28T07:01:33.691Z,65.50
2019-04-28T07:04:01.427Z,62.50
2019-04-28T07:06:29.260Z,65.70
2019-04-28T07:08:57.022Z,65.20
2019-04-28T07:11:24.810Z,65.70
2019-04-28T07:13:52.557Z,67.30
2019-04-28T07:16:20.520Z,65.10
2019-04-28T07:18:48.281Z,66.00
2019-04-28T07:21:36.456Z,64.00
2019-04-28T07:24:04.247Z,62.20
2019-04-28T07:26:32.053Z,61.10
2019-04-28T07:28:59.857Z,61.00
2019-04-28T07:31:27.708Z,61.60
2019-04-28T07:33:56.619Z,61.20
2019-04-28T07:36:24.452Z,60.80
2019-04-28T07:38:53.279Z,61.90
2019-04-28T07:41:21.035Z,61.80
2019-04-28T07:43:48.807Z,60.10
2019-04-28T07:46:16.644Z,61.50
2019-04-28T07:48:44.421Z,60.00
2019-04-28T07:51:13.646Z,60.00
2019-04-28T07:53:48.582Z,59.20
2019-04-28T07:56:16.302Z,60.30
2019-04-28T07:58:46.359Z,60.50
2019-04-28T08:01:14.234Z,57.40
2019-04-28T08:03:49.194Z,57.70
2019-04-28T08:06:11.729Z,58.20
2019-04-28T08:08:39.507Z,55.90
2019-04-28T08:11:08.205Z,54.20
2019-04-28T08:13:35.944Z,54.30
2019-04-28T08:16:03.735Z,47.50
2019-04-28T08:18:31.692Z,41.00
2019-04-28T08:20:59.553Z,35.90
2019-04-28T08:23:27.288Z,32.80
2019-04-28T08:25:55.120Z,30.00
2019-04-28T08:28:22.971Z,35.10
2019-04-28T08:30:52.554Z,37.10
2019-04-28T08:33:42.709Z,38.20
2019-04-28T08:36:11.902Z,38.10
2019-04-28T08:38:39.656Z,41.60
2019-04-28T08:41:08.594Z,42.40
2019-04-28T08:43:36.506Z,44.30
2019-04-28T08:46:04.356Z,42.30
2019-04-28T08:48:33.328Z,42.40
2019-04-28T08:51:01.122Z,42.70
2019-04-28T08:54:09.065Z,43.30
2019-04-28T08:56:42.798Z,44.60
2019-04-28T08:59:13.748Z,42.20
2019-04-28T09:01:41.482Z,43.90
2019-04-28T09:04:15.641Z,44.40
2019-04-28T09:06:39.448Z,43.60
2019-04-28T09:09:13.085Z,42.90
2019-04-28T09:11:40.822Z,41.90
2019-04-28T09:14:08.611Z,38.10
2019-04-28T09:16:36.791Z,36.70
2019-04-28T09:19:06.047Z,34.30
2019-04-28T09:21:33.762Z,28.70
2019-04-28T09:24:05.532Z,29.20
2019-04-28T09:26:33.312Z,33.00
2019-04-28T09:29:01.463Z,35.10
2019-04-28T09:31:29.239Z,39.10
2019-04-28T09:33:57.007Z,38.10
2019-04-28T09:36:27.627Z,40.80
2019-04-28T09:38:56.092Z,40.50
2019-04-28T09:41:24.512Z,36.60
2019-04-28T09:44:23.101Z,34.00
2019-04-28T09:46:50.872Z,28.50
2019-04-28T09:49:19.637Z,25.20
2019-04-28T09:51:47.472Z,23.50
2019-04-28T09:54:16.632Z,22.20
2019-04-28T09:56:56.013Z,22.10
2019-04-28T09:59:14.951Z,25.50
2019-04-28T10:01:42.968Z,24.10
2019-04-28T10:04:12.843Z,25.20
2019-04-28T10:06:40.966Z,26.10
2019-04-28T10:09:09.723Z,28.00
2019-04-28T10:11:37.948Z,27.80
2019-04-28T10:14:06.311Z,25.50
2019-04-28T10:19:19.481Z,24.50
2019-04-28T10:21:57.462Z,21.80
2019-04-28T10:24:25.370Z,24.40
2019-04-28T10:26:53.184Z,24.60
2019-04-28T10:29:21.823Z,26.00
2019-04-28T10:31:49.804Z,24.80
2019-04-28T10:34:18.264Z,23.20
2019-04-28T10:36:46.157Z,22.10
2019-04-28T10:39:28.021Z,19.20
2019-04-28T10:42:06.435Z,19.80
2019-04-28T10:44:37.789Z,20.10
2019-04-28T10:47:07.131Z,17.50
2019-04-28T10:49:34.921Z,17.90
2019-04-28T10:52:13.487Z,18.50
2019-04-28T10:54:41.467Z,20.20
2019-04-28T10:57:09.272Z,23.60
2019-04-28T10:59:37.058Z,25.70
2019-04-28T11:02:05.680Z,24.10
2019-04-28T11:04:42.953Z,24.20
2019-04-28T11:07:11.989Z,20.20
2019-04-28T11:09:45.450Z,18.80
2019-04-28T11:12:19.275Z,19.40
2019-04-28T11:15:11.010Z,20.80
2019-04-28T11:17:39.595Z,21.70
2019-04-28T11:20:09.436Z,24.40
2019-04-28T11:22:37.609Z,23.60
2019-04-28T11:25:06.300Z,23.00
2019-04-28T11:27:35.336Z,21.30
2019-04-28T11:30:03.774Z,22.10
2019-04-28T11:32:31.680Z,22.20
2019-04-28T11:35:21.683Z,22.70
2019-04-28T11:37:49.168Z,25.60
2019-04-28T11:40:17.025Z,25.30
2019-04-28T11:42:44.791Z,28.90
2019-04-28T11:45:13.146Z,26.00
2019-04-28T11:47:41.116Z,24.70
2019-04-28T11:50:09.166Z,22.90
2019-04-28T11:52:42.029Z,22.50
2019-04-28T11:55:10.057Z,20.00
2019-04-28T11:57:37.889Z,19.60
2019-04-28T12:00:18.597Z,20.30
2019-04-28T12:02:46.481Z,21.10
2019-04-28T12:05:14.382Z,21.50
2019-04-28T12:07:42.165Z,23.10
2019-04-28T12:10:15.017Z,22.80
2019-04-28T12:13:02.382Z,25.00
2019-04-28T12:15:52.035Z,25.40
2019-04-28T12:18:45.453Z,26.80
2019-04-28T12:21:13.360Z,26.00
2019-04-28T12:23:41.281Z,28.20
2019-04-28T12:26:09.058Z,28.20
2019-04-28T12:28:52.766Z,27.00
2019-04-28T12:31:20.579Z,29.60
2019-04-28T12:34:19.250Z,28.50
2019-04-28T12:36:47.708Z,27.40
2019-04-28T12:39:16.007Z,28.40
2019-04-28T12:41:44.760Z,26.90
2019-04-28T12:44:24.766Z,26.80
2019-04-28T12:46:54.042Z,25.80
2019-04-28T12:49:27.316Z,25.00
2019-04-28T12:51:55.393Z,26.20
2019-04-28T12:54:25.982Z,27.50
2019-04-28T12:56:54.044Z,25.70
2019-04-28T12:59:27.240Z,26.10
2019-04-28T13:02:43.261Z,26.60
2019-04-28T13:05:15.858Z,24.80
2019-04-28T13:07:43.698Z,25.50
2019-04-28T13:10:11.945Z,27.10
2019-04-28T13:12:40.267Z,24.90
2019-04-28T13:15:08.145Z,24.40
2019-04-28T13:17:36.053Z,25.10
2019-04-28T13:20:05.033Z,26.40
2019-04-28T13:22:33.991Z,26.60
2019-04-28T13:25:02.121Z,28.10
2019-04-28T13:27:29.981Z,27.50
2019-04-28T13:30:00.417Z,26.80
2019-04-28T13:32:33.737Z,25.60
2019-04-28T13:35:02.427Z,24.60
2019-04-28T13:37:30.295Z,24.80
2019-04-28T13:40:04.977Z,25.80
2019-04-28T13:42:33.183Z,26.60
2019-04-28T13:45:05.047Z,27.00
2019-04-28T13:47:32.924Z,27.30
2019-04-28T13:50:35.589Z,27.20
2019-04-28T13:53:04.147Z,27.00
2019-04-28T13:55:51.748Z,27.80
2019-04-28T13:58:22.239Z,26.00
2019-04-28T14:01:01.840Z,23.30
2019-04-28T14:03:49.351Z,23.30
2019-04-28T14:06:28.230Z,22.60
2019-04-28T14:08:47.877Z,20.00
2019-04-28T14:11:15.704Z,22.60
2019-04-28T14:13:43.516Z,21.70
2019-04-28T14:16:14.175Z,20.70
2019-04-28T14:18:41.963Z,22.10
2019-04-28T14:21:09.803Z,19.00
2019-04-28T14:23:37.674Z,21.30
2019-04-28T14:26:05.376Z,21.00
2019-04-28T14:28:33.214Z,22.00
2019-04-28T14:31:00.975Z,18.70
2019-04-28T14:33:28.788Z,21.20
2019-04-28T14:35:56.503Z,21.70
2019-04-28T14:38:24.629Z,21.10
2019-04-28T14:40:52.744Z,23.10
2019-04-28T14:43:20.665Z,23.50
2019-04-28T14:45:48.439Z,23.90
2019-04-28T14:48:16.185Z,25.50
2019-04-28T14:50:44.553Z,22.70
2019-04-28T14:53:14.209Z,24.00
2019-04-28T14:55:42.012Z,24.60
2019-04-28T14:58:10.033Z,24.70
2019-04-28T15:00:43.040Z,24.70
2019-04-28T15:03:16.815Z,24.80
2019-04-28T15:06:00.061Z,25.10
2019-04-28T15:08:45.820Z,23.10
2019-04-28T15:11:32.131Z,23.90
2019-04-28T15:14:00.031Z,21.30
2019-04-28T15:16:27.921Z,22.70
2019-04-28T15:18:55.648Z,23.00
2019-04-28T15:21:23.428Z,24.20
2019-04-28T15:23:51.490Z,24.70
2019-04-28T15:26:19.263Z,23.50
2019-04-28T15:28:47.027Z,24.40
2019-04-28T15:31:14.823Z,24.20
2019-04-28T15:33:47.687Z,25.40
2019-04-28T15:36:15.572Z,24.90
2019-04-28T15:38:43.373Z,25.00
2019-04-28T15:41:21.322Z,25.70
2019-04-28T15:43:40.896Z,25.40
2019-04-28T15:46:10.257Z,25.60
2019-04-28T15:48:38.012Z,26.90
2019-04-28T15:51:05.920Z,25.30
2019-04-28T15:54:13.855Z,27.60
2019-04-28T15:56:47.483Z,27.50
2019-04-28T15:59:15.476Z,29.20
2019-04-28T16:01:43.625Z,29.80
2019-04-28T16:04:12.246Z,29.10
2019-04-28T16:06:41.003Z,28.70
2019-04-28T16:09:11.969Z,28.90
2019-04-28T16:11:41.371Z,29.80
2019-04-28T16:14:09.162Z,29.20
2019-04-28T16:16:36.960Z,28.50
2019-04-28T16:19:04.770Z,27.80
2019-04-28T16:21:32.539Z,29.10
2019-04-28T16:24:00.340Z,29.10
2019-04-28T16:26:28.074Z,28.70
2019-04-28T16:28:55.874Z,28.90
2019-04-28T16:31:23.632Z,30.50
2019-04-28T16:33:52.239Z,29.00
2019-04-28T16:36:20.034Z,28.40
2019-04-28T16:38:47.810Z,29.30
2019-04-28T16:41:30.057Z,30.20
2019-04-28T16:44:02.493Z,28.80
2019-04-28T16:46:30.356Z,31.50
2019-04-28T16:48:59.321Z,28.50
2019-04-28T16:51:27.442Z,28.40
2019-04-28T16:53:57.275Z,29.70
2019-04-28T16:56:43.524Z,29.70
2019-04-28T16:59:36.256Z,31.20
2019-04-28T17:02:23.189Z,31.20
2019-04-28T17:04:51.038Z,31.30
2019-04-28T17:07:18.830Z,32.00
2019-04-28T17:09:46.593Z,31.10
2019-04-28T17:12:14.667Z,30.90
2019-04-28T17:14:42.736Z,31.80
2019-04-28T17:17:11.489Z,32.40
2019-04-28T17:19:40.119Z,31.60
2019-04-28T17:22:08.059Z,32.30
2019-04-28T17:24:35.900Z,33.20
2019-04-28T17:27:03.920Z,33.60
2019-04-28T17:29:31.744Z,34.40
2019-04-28T17:32:09.596Z,33.70
2019-04-28T17:34:37.510Z,34.40
2019-04-28T17:37:07.163Z,36.10
2019-04-28T17:39:35.553Z,34.70
2019-04-28T17:42:04.117Z,35.30
2019-04-28T17:44:32.076Z,37.50
2019-04-28T17:47:00.176Z,38.00
2019-04-28T17:49:33.183Z,40.70
2019-04-28T17:52:01.305Z,40.60
2019-04-28T17:54:29.133Z,43.40
2019-04-28T17:56:58.205Z,44.50
2019-04-28T17:59:26.048Z,44.60
2019-04-28T18:02:16.786Z,47.20
2019-04-28T18:05:00.463Z,47.20
2019-04-28T18:07:31.231Z,47.60
2019-04-28T18:09:59.040Z,47.60
2019-04-28T18:12:28.907Z,49.50
2019-04-28T18:15:02.772Z,47.20
2019-04-28T18:17:49.574Z,47.10
2019-04-28T18:20:17.433Z,49.20
2019-04-28T18:22:45.198Z,47.50
2019-04-28T18:25:13.410Z,49.90
2019-04-28T18:27:41.206Z,49.80
2019-04-28T18:30:10.185Z,50.30
2019-04-28T18:33:00.490Z,50.30
2019-04-28T18:35:54.075Z,51.80
2019-04-28T18:38:34.823Z,54.60
2019-04-28T18:41:23.507Z,54.80
2019-04-28T18:44:15.627Z,55.10
2019-04-28T18:46:43.582Z,55.70
2019-04-28T18:49:11.675Z,56.10
2019-04-28T18:51:39.688Z,58.30
2019-04-28T18:54:07.594Z,60.10
2019-04-28T18:56:35.447Z,60.20
2019-04-28T18:59:03.421Z,59.00
2019-04-28T19:01:44.025Z,59.20
2019-04-28T19:04:11.913Z,60.50
2019-04-28T19:06:39.744Z,62.90
2019-04-28T19:09:27.309Z,63.60
2019-04-28T19:12:06.771Z,65.10
2019-04-28T19:14:39.065Z,66.10
2019-04-28T19:17:14.049Z,67.10
2019-04-28T19:19:42.004Z,67.60
2019-04-28T19:22:15.262Z,65.90
2019-04-28T19:24:43.110Z,66.60
2019-04-28T19:27:10.981Z,66.00
2019-04-28T19:29:38.740Z,64.40
2019-04-28T19:32:06.537Z,64.60
2019-04-28T19:34:34.371Z,64.60
2019-04-28T19:37:02.217Z,65.20
2019-04-28T19:39:30.029Z,67.00
2019-04-28T19:41:57.915Z,66.90
2019-04-28T19:44:25.730Z,66.40
2019-04-28T19:46:53.531Z,68.60
2019-04-28T19:49:21.315Z,68.10
2019-04-28T19:51:49.127Z,69.70
2019-04-28T19:54:19.375Z,68.60
2019-04-28T19:56:54.578Z,69.70
2019-04-28T19:59:41.989Z,70.40
2019-04-28T20:02:09.955Z,71.40
2019-04-28T20:04:37.743Z,72.30
2019-04-28T20:07:05.562Z,73.00
2019-04-28T20:09:33.442Z,71.80
2019-04-28T20:12:01.565Z,72.80
2019-04-28T20:14:29.400Z,73.20
2019-04-28T20:16:57.196Z,74.00
2019-04-28T20:19:25.067Z,74.10
2019-04-28T20:21:52.791Z,73.40
2019-04-28T20:24:20.668Z,73.80
2019-04-28T20:26:48.500Z,74.00
2019-04-28T20:29:16.365Z,74.30
2019-04-28T20:31:44.212Z,74.20
2019-04-28T20:34:11.987Z,74.80
2019-04-28T20:37:04.070Z,74.10
2019-04-28T20:39:32.033Z,75.20
2019-04-28T20:42:23.536Z,75.40
2019-04-28T20:44:51.320Z,75.20
2019-04-28T20:47:19.114Z,75.90
2019-04-28T20:49:46.895Z,76.30
2019-04-28T20:52:15.262Z,76.50
2019-04-28T20:54:43.062Z,76.80
2019-04-28T20:57:10.857Z,76.70
2019-04-28T20:59:38.632Z,77.80
2019-04-28T21:02:06.600Z,78.20
2019-04-28T21:04:34.424Z,77.70
2019-04-28T21:07:02.461Z,78.20
2019-04-28T21:09:30.247Z,78.80
2019-04-28T21:11:58.039Z,78.80
2019-04-28T21:14:25.775Z,78.80
2019-04-28T21:16:53.578Z,79.20
2019-04-28T21:19:21.367Z,78.70
2019-04-28T21:21:49.196Z,78.70
2019-04-28T21:24:17.242Z,78.70
2019-04-28T21:26:44.982Z,78.70
2019-04-28T21:29:12.756Z,78.60
2019-04-28T21:31:40.543Z,78.60
2019-04-28T21:34:08.346Z,79.30
2019-04-28T21:36:36.165Z,79.50
2019-04-28T21:39:06.800Z,80.20
2019-04-28T21:41:34.603Z,80.10
2019-04-28T21:44:24.577Z,80.60
2019-04-28T21:47:00.271Z,80.90
2019-04-28T21:49:37.431Z,81.10
2019-04-28T21:52:10.455Z,81.50
2019-04-28T21:54:38.167Z,81.40
2019-04-28T21:57:06.035Z,81.50
2019-04-28T21:59:33.794Z,80.10
2019-04-28T22:02:01.580Z,80.70
2019-04-28T22:04:29.403Z,80.80
2019-04-28T22:06:57.127Z,80.80
2019-04-28T22:09:24.874Z,80.80
2019-04-28T22:11:52.704Z,80.60
2019-04-28T22:14:20.526Z,81.50
2019-04-28T22:16:48.374Z,81.10
2019-04-28T22:19:16.167Z,80.80
2019-04-28T22:21:43.935Z,80.10
2019-04-28T22:24:37.777Z,80.40
2019-04-28T22:27:06.681Z,80.80
2019-04-28T22:29:34.407Z,82.10
2019-04-28T22:32:02.375Z,80.90
2019-04-28T22:34:30.099Z,81.50
2019-04-28T22:36:57.882Z,81.50
2019-04-28T22:39:25.659Z,81.60
2019-04-28T22:41:53.668Z,82.30
2019-04-28T22:44:21.403Z,82.50
2019-04-28T22:46:49.175Z,83.20
2019-04-28T22:49:17.050Z,83.10
2019-04-28T22:51:44.982Z,83.10
2019-04-28T22:54:32.376Z,83.10
2019-04-28T22:57:15.530Z,83.10
2019-04-28T22:59:44.103Z,83.10
2019-04-28T23:02:16.191Z,83.20
2019-04-28T23:05:09.839Z,83.00
2019-04-28T23:07:37.693Z,83.00
2019-04-28T23:10:08.546Z,83.00
2019-04-28T23:12:46.435Z,83.00
2019-04-28T23:15:15.008Z,82.90
2019-04-28T23:17:42.802Z,83.50
2019-04-28T23:20:12.851Z,83.10
2019-04-28T23:22:50.430Z,82.90
2019-04-28T23:25:18.157Z,82.80
2019-04-28T23:27:45.974Z,82.80
2019-04-28T23:30:36.639Z,82.90
2019-04-28T23:33:04.464Z,82.60
2019-04-28T23:35:32.146Z,82.80
2019-04-28T23:37:59.925Z,84.40
2019-04-28T23:40:27.680Z,82.80
2019-04-28T23:43:05.236Z,82.80
2019-04-28T23:45:33.222Z,83.60
2019-04-28T23:48:01.003Z,82.70
2019-04-28T23:50:35.606Z,83.50
2019-04-28T23:53:11.682Z,84.70
2019-04-28T23:55:39.501Z,85.30
2019-04-28T23:58:07.181Z,84.40
